createdAt,value
2022-12-03T00:01:48.381Z,102496.16
2022-12-03T00:04:15.264Z,102493.19
2022-12-03T00:06:41.735Z,102494.44
2022-12-03T00:09:09.008Z,102486.47
2022-12-03T00:11:35.599Z,102494.94
2022-12-03T00:14:02.057Z,102488.97
2022-12-03T00:16:29.177Z,102489.88
2022-12-03T00:18:56.023Z,102481.84
2022-12-03T00:21:24.580Z,102489.25
2022-12-03T00:23:51.701Z,102483.44
2022-12-03T00:26:18.151Z,102483.25
2022-12-03T00:28:45.535Z,102485.50
2022-12-03T00:31:12.072Z,102490.25
2022-12-03T00:33:38.544Z,102479.00
2022-12-03T00:36:05.411Z,102484.53
2022-12-03T00:38:32.100Z,102481.50
2022-12-03T00:41:01.860Z,102483.19
2022-12-03T00:43:28.300Z,102484.53
2022-12-03T00:45:54.802Z,102481.41
2022-12-03T00:48:21.237Z,102482.91
2022-12-03T00:50:47.689Z,102485.41
2022-12-03T00:53:14.124Z,102474.28
2022-12-03T00:55:40.563Z,102485.94
2022-12-03T00:58:08.601Z,102480.25
2022-12-03T01:00:36.044Z,102478.28
2022-12-03T01:03:02.890Z,102477.41
2022-12-03T01:05:29.385Z,102476.50
2022-12-03T01:07:55.890Z,102483.97
2022-12-03T01:10:22.393Z,102480.63
2022-12-03T01:12:48.858Z,102482.56
2022-12-03T01:15:15.286Z,102484.47
2022-12-03T01:17:41.820Z,102483.53
2022-12-03T01:20:09.592Z,102486.81
2022-12-03T01:22:36.164Z,102475.91
2022-12-03T01:25:02.687Z,102473.25
2022-12-03T01:27:29.140Z,102480.59
2022-12-03T01:29:55.575Z,102479.34
2022-12-03T01:32:22.215Z,102478.19
2022-12-03T01:34:49.731Z,102477.50
2022-12-03T01:37:17.227Z,102476.84
2022-12-03T01:39:43.751Z,102476.84
2022-12-03T01:42:19.674Z,102468.75
2022-12-03T01:44:46.621Z,102477.03
2022-12-03T01:47:16.891Z,102471.03
2022-12-03T01:49:47.213Z,102470.03
2022-12-03T01:52:16.471Z,102469.63
2022-12-03T01:54:47.123Z,102476.50
2022-12-03T01:57:19.973Z,102472.97
2022-12-03T01:59:46.715Z,102466.44
2022-12-03T02:02:18.042Z,102460.44
2022-12-03T02:04:44.607Z,102460.25
2022-12-03T02:07:37.431Z,102467.13
2022-12-03T02:10:05.054Z,102464.59
2022-12-03T02:12:51.733Z,102456.47
2022-12-03T02:15:18.252Z,102466.69
2022-12-03T02:17:44.757Z,102462.94
2022-12-03T02:20:12.906Z,102474.19
2022-12-03T02:23:00.577Z,102470.59
2022-12-03T02:25:32.870Z,102472.94
2022-12-03T02:28:00.224Z,102464.38
2022-12-03T02:30:28.134Z,102469.53
2022-12-03T02:32:56.104Z,102468.63
2022-12-03T02:35:25.599Z,102474.34
2022-12-03T02:37:55.470Z,102467.84
2022-12-03T02:40:25.063Z,102466.13
2022-12-03T02:42:55.295Z,102466.16
2022-12-03T02:45:24.831Z,102463.56
2022-12-03T02:47:57.000Z,102467.75
2022-12-03T02:50:28.068Z,102469.88
2022-12-03T02:52:56.100Z,102463.09
2022-12-03T02:55:22.951Z,102463.91
2022-12-03T02:57:50.376Z,102467.28
2022-12-03T03:00:18.248Z,102470.53
2022-12-03T03:02:46.269Z,102460.44
2022-12-03T03:05:13.295Z,102466.50
2022-12-03T03:07:40.228Z,102465.94
2022-12-03T03:10:07.812Z,102464.00
2022-12-03T03:12:39.071Z,102457.44
2022-12-03T03:15:07.270Z,102467.34
2022-12-03T03:17:35.313Z,102467.81
2022-12-03T03:20:02.863Z,102463.25
2022-12-03T03:22:37.631Z,102458.00
2022-12-03T03:25:05.148Z,102465.41
2022-12-03T03:27:32.136Z,102459.81
2022-12-03T03:29:59.165Z,102460.22
2022-12-03T03:32:27.179Z,102457.56
2022-12-03T03:34:54.145Z,102457.53
2022-12-03T03:37:21.072Z,102455.41
2022-12-03T03:39:47.848Z,102460.44
2022-12-03T03:42:14.431Z,102451.59
2022-12-03T03:44:40.983Z,102454.94
2022-12-03T03:47:07.701Z,102456.78
2022-12-03T03:49:34.235Z,102451.50
2022-12-03T03:52:00.732Z,102457.44
2022-12-03T03:54:27.286Z,102448.72
2022-12-03T03:56:53.769Z,102452.41
2022-12-03T03:59:20.183Z,102446.66
2022-12-03T04:01:46.797Z,102455.53
2022-12-03T04:04:19.979Z,102452.66
2022-12-03T04:06:47.273Z,102450.22
2022-12-03T04:09:13.835Z,102453.66
2022-12-03T04:11:58.976Z,102457.44
2022-12-03T04:14:25.415Z,102448.09
2022-12-03T04:16:51.865Z,102446.50
2022-12-03T04:19:18.454Z,102451.09
2022-12-03T04:22:03.649Z,102447.47
2022-12-03T04:24:45.150Z,102445.69
2022-12-03T04:27:30.412Z,102450.09
2022-12-03T04:29:56.870Z,102446.13
2022-12-03T04:32:42.002Z,102439.00
2022-12-03T04:35:28.125Z,102444.72
2022-12-03T04:37:54.651Z,102451.84
2022-12-03T04:40:39.709Z,102450.00
2022-12-03T04:43:06.166Z,102460.88
2022-12-03T04:45:32.677Z,102451.94
2022-12-03T04:47:59.180Z,102443.63
2022-12-03T04:50:25.616Z,102451.94
2022-12-03T04:52:52.055Z,102441.66
2022-12-03T04:55:18.510Z,102444.16
2022-12-03T04:57:44.926Z,102453.13
2022-12-03T05:00:12.066Z,102447.41
2022-12-03T05:02:38.539Z,102452.38
2022-12-03T05:05:05.388Z,102442.66
2022-12-03T05:07:31.870Z,102446.53
2022-12-03T05:09:58.361Z,102444.00
2022-12-03T05:12:24.802Z,102435.22
2022-12-03T05:14:51.552Z,102432.66
2022-12-03T05:17:18.366Z,102431.47
2022-12-03T05:20:03.514Z,102429.38
2022-12-03T05:22:29.948Z,102422.50
2022-12-03T05:24:56.762Z,102430.16
2022-12-03T05:27:24.258Z,102433.63
2022-12-03T05:29:51.365Z,102429.44
2022-12-03T05:32:17.857Z,102429.25
2022-12-03T05:34:44.320Z,102429.34
2022-12-03T05:37:11.075Z,102423.75
2022-12-03T05:39:37.731Z,102422.41
2022-12-03T05:42:22.814Z,102427.44
2022-12-03T05:44:49.320Z,102425.09
2022-12-03T05:47:15.761Z,102433.97
2022-12-03T05:49:42.316Z,102428.00
2022-12-03T05:52:08.760Z,102423.75
2022-12-03T05:54:35.234Z,102431.13
2022-12-03T05:57:01.683Z,102424.28
2022-12-03T05:59:28.121Z,102416.47
2022-12-03T06:01:54.571Z,102422.59
2022-12-03T06:04:21.040Z,102425.53
2022-12-03T06:06:47.480Z,102412.50
2022-12-03T06:09:13.940Z,102419.03
2022-12-03T06:11:41.281Z,102414.84
2022-12-03T06:14:07.979Z,102416.47
2022-12-03T06:16:34.480Z,102414.16
2022-12-03T06:19:01.048Z,102410.34
2022-12-03T06:21:27.505Z,102399.41
2022-12-03T06:23:53.944Z,102404.50
2022-12-03T06:26:20.375Z,102415.06
2022-12-03T06:28:49.105Z,102412.03
2022-12-03T06:31:15.857Z,102410.97
2022-12-03T06:33:42.455Z,102408.28
2022-12-03T06:36:09.054Z,102398.47
2022-12-03T06:38:35.504Z,102406.34
2022-12-03T06:41:01.944Z,102403.84
2022-12-03T06:43:28.376Z,102406.09
2022-12-03T06:45:54.828Z,102402.97
2022-12-03T06:48:21.279Z,102408.56
2022-12-03T06:50:47.777Z,102411.34
2022-12-03T06:53:14.201Z,102402.31
2022-12-03T06:55:40.668Z,102400.94
2022-12-03T06:58:07.147Z,102398.59
2022-12-03T07:00:33.598Z,102396.00
2022-12-03T07:03:00.107Z,102390.63
2022-12-03T07:05:26.738Z,102396.94
2022-12-03T07:07:55.328Z,102393.69
2022-12-03T07:10:22.334Z,102396.75
2022-12-03T07:12:48.758Z,102401.84
2022-12-03T07:15:15.238Z,102403.03
2022-12-03T07:17:41.684Z,102397.16
2022-12-03T07:20:09.043Z,102395.47
2022-12-03T07:22:35.485Z,102384.31
2022-12-03T07:25:02.009Z,102395.53
2022-12-03T07:27:28.430Z,102401.38
2022-12-03T07:29:54.880Z,102399.22
2022-12-03T07:32:21.326Z,102392.19
2022-12-03T07:34:47.779Z,102388.47
2022-12-03T07:37:17.507Z,102387.38
2022-12-03T07:39:46.516Z,102392.28
2022-12-03T07:42:13.010Z,102397.66
2022-12-03T07:44:39.469Z,102393.31
2022-12-03T07:47:06.050Z,102386.94
2022-12-03T07:49:32.883Z,102388.94
2022-12-03T07:51:59.326Z,102389.81
2022-12-03T07:54:26.260Z,102391.50
2022-12-03T07:56:57.955Z,102384.72
2022-12-03T07:59:28.690Z,102387.34
2022-12-03T08:01:55.183Z,102377.16
2022-12-03T08:04:21.748Z,102389.63
2022-12-03T08:06:48.870Z,102380.00
2022-12-03T08:09:16.455Z,102389.59
2022-12-03T08:11:45.492Z,102388.00
2022-12-03T08:14:17.212Z,102381.66
2022-12-03T08:16:45.262Z,102384.03
2022-12-03T08:19:13.831Z,102387.75
2022-12-03T08:21:40.771Z,102388.97
2022-12-03T08:24:14.896Z,102382.16
2022-12-03T08:26:44.045Z,102378.66
2022-12-03T08:29:12.467Z,102378.38
2022-12-03T08:31:39.756Z,102379.00
2022-12-03T08:34:19.446Z,102382.56
2022-12-03T08:36:47.216Z,102380.69
2022-12-03T08:39:33.851Z,102376.31
2022-12-03T08:42:32.143Z,102382.00
2022-12-03T08:45:29.712Z,102373.50
2022-12-03T08:48:00.698Z,102367.56
2022-12-03T08:50:28.252Z,102370.84
2022-12-03T08:52:58.326Z,102382.69
2022-12-03T08:55:38.616Z,102373.56
2022-12-03T08:58:28.116Z,102380.91
2022-12-03T09:01:11.259Z,102370.00
2022-12-03T09:03:48.376Z,102373.84
2022-12-03T09:06:14.872Z,102367.66
2022-12-03T09:08:41.326Z,102362.44
2022-12-03T09:11:07.818Z,102367.81
2022-12-03T09:13:34.342Z,102367.19
2022-12-03T09:16:00.813Z,102359.88
2022-12-03T09:18:27.255Z,102361.91
2022-12-03T09:20:53.698Z,102362.06
2022-12-03T09:23:20.132Z,102359.31
2022-12-03T09:25:46.597Z,102352.66
2022-12-03T09:28:13.075Z,102364.53
2022-12-03T09:30:39.560Z,102358.81
2022-12-03T09:33:06.013Z,102354.91
2022-12-03T09:35:32.561Z,102355.97
2022-12-03T09:37:59.041Z,102354.00
2022-12-03T09:40:25.545Z,102344.53
2022-12-03T09:42:52.094Z,102351.84
2022-12-03T09:45:18.608Z,102351.59
2022-12-03T09:47:47.256Z,102357.34
2022-12-03T09:50:15.808Z,102344.72
2022-12-03T09:52:42.484Z,102348.84
2022-12-03T09:55:17.786Z,102332.94
2022-12-03T09:57:44.443Z,102334.69
2022-12-03T10:00:19.245Z,102334.88
2022-12-03T10:02:46.867Z,102337.84
2022-12-03T10:05:14.626Z,102332.66
2022-12-03T10:07:42.041Z,102344.09
2022-12-03T10:10:18.471Z,102339.16
2022-12-03T10:12:45.214Z,102332.19
2022-12-03T10:15:13.403Z,102322.53
2022-12-03T10:17:39.929Z,102322.97
2022-12-03T10:20:07.726Z,102325.69
2022-12-03T10:22:37.327Z,102322.03
2022-12-03T10:25:07.767Z,102322.81
2022-12-03T10:27:34.300Z,102325.50
2022-12-03T10:30:03.887Z,102323.34
2022-12-03T10:32:45.555Z,102323.69
2022-12-03T10:35:17.980Z,102316.72
2022-12-03T10:38:05.263Z,102314.63
2022-12-03T10:40:37.328Z,102310.19
2022-12-03T10:43:23.646Z,102307.34
2022-12-03T10:46:00.474Z,102309.03
2022-12-03T10:48:30.126Z,102300.25
2022-12-03T10:51:02.268Z,102296.09
2022-12-03T10:53:34.017Z,102285.16
2022-12-03T10:56:03.048Z,102289.34
2022-12-03T10:58:31.466Z,102295.88
2022-12-03T11:00:59.107Z,102290.19
2022-12-03T11:03:27.914Z,102291.78
2022-12-03T11:05:55.465Z,102284.47
2022-12-03T11:08:24.548Z,102287.59
2022-12-03T11:11:03.080Z,102278.13
2022-12-03T11:13:32.742Z,102281.25
2022-12-03T11:16:00.652Z,102282.44
2022-12-03T11:18:36.325Z,102272.53
2022-12-03T11:21:08.833Z,102282.94
2022-12-03T11:23:44.402Z,102263.19
2022-12-03T11:26:19.785Z,102268.25
2022-12-03T11:28:46.507Z,102269.09
2022-12-03T11:31:39.262Z,102260.53
2022-12-03T11:34:18.019Z,102248.38
2022-12-03T11:37:12.417Z,102259.06
2022-12-03T11:39:45.215Z,102257.41
2022-12-03T11:42:26.933Z,102251.50
2022-12-03T11:45:02.591Z,102250.56
2022-12-03T11:47:36.591Z,102247.00
2022-12-03T11:50:17.763Z,102242.03
2022-12-03T11:52:46.799Z,102239.78
2022-12-03T11:55:17.992Z,102235.78
2022-12-03T11:57:44.522Z,102226.66
2022-12-03T12:00:21.460Z,102225.66
2022-12-03T12:02:49.091Z,102223.25
2022-12-03T12:05:20.898Z,102218.44
2022-12-03T12:07:48.214Z,102221.38
2022-12-03T12:10:44.891Z,102213.69
2022-12-03T12:13:30.133Z,102215.63
2022-12-03T12:15:57.784Z,102207.66
2022-12-03T12:18:41.507Z,102203.41
2022-12-03T12:21:43.119Z,102207.16
2022-12-03T12:24:31.484Z,102202.53
2022-12-03T12:27:00.526Z,102195.13
2022-12-03T12:29:27.500Z,102196.94
2022-12-03T12:32:06.117Z,102192.28
2022-12-03T12:34:33.029Z,102198.97
2022-12-03T12:37:00.331Z,102196.28
2022-12-03T12:39:26.925Z,102194.25
2022-12-03T12:41:54.461Z,102191.22
2022-12-03T12:44:23.557Z,102186.91
2022-12-03T12:46:52.618Z,102180.09
2022-12-03T12:49:23.479Z,102170.94
2022-12-03T12:51:50.622Z,102180.97
2022-12-03T12:54:20.396Z,102179.97
2022-12-03T12:56:49.943Z,102180.19
2022-12-03T12:59:20.906Z,102169.97
2022-12-03T13:01:49.228Z,102165.63
2022-12-03T13:04:21.815Z,102165.63
2022-12-03T13:06:50.478Z,102175.69
2022-12-03T13:09:20.543Z,102168.81
2022-12-03T13:12:00.222Z,102168.25
2022-12-03T13:14:32.139Z,102171.41
2022-12-03T13:17:01.325Z,102173.66
2022-12-03T13:19:29.672Z,102173.00
2022-12-03T13:21:57.672Z,102169.31
2022-12-03T13:24:37.254Z,102175.13
2022-12-03T13:27:23.067Z,102171.78
2022-12-03T13:29:54.719Z,102170.34
2022-12-03T13:32:32.404Z,102167.53
2022-12-03T13:35:23.482Z,102157.09
2022-12-03T13:37:50.060Z,102153.72
2022-12-03T13:40:30.805Z,102155.44
2022-12-03T13:42:58.428Z,102144.38
2022-12-03T13:45:31.033Z,102139.56
2022-12-03T13:48:01.906Z,102143.22
2022-12-03T13:50:39.846Z,102141.44
2022-12-03T13:53:31.833Z,102151.50
2022-12-03T13:56:09.231Z,102145.97
2022-12-03T13:58:35.662Z,102134.53
2022-12-03T14:01:02.168Z,102144.38
2022-12-03T14:03:28.620Z,102125.34
2022-12-03T14:05:55.064Z,102136.66
2022-12-03T14:08:21.571Z,102128.25
2022-12-03T14:10:48.046Z,102126.69
2022-12-03T14:13:14.454Z,102131.00
2022-12-03T14:15:40.907Z,102138.84
2022-12-03T14:18:07.334Z,102131.50
2022-12-03T14:20:34.994Z,102130.94
2022-12-03T14:23:01.426Z,102127.88
2022-12-03T14:25:27.923Z,102130.78
2022-12-03T14:27:54.424Z,102132.91
2022-12-03T14:30:21.226Z,102137.34
2022-12-03T14:32:47.687Z,102141.66
2022-12-03T14:35:14.225Z,102139.81
2022-12-03T14:37:40.640Z,102141.44
2022-12-03T14:40:09.074Z,102148.25
2022-12-03T14:42:36.496Z,102147.25
2022-12-03T14:45:03.692Z,102153.59
2022-12-03T14:47:33.418Z,102144.09
2022-12-03T14:50:00.594Z,102144.28
2022-12-03T14:52:27.223Z,102145.91
2022-12-03T14:54:53.724Z,102135.66
2022-12-03T14:57:20.241Z,102133.28
2022-12-03T14:59:47.284Z,102129.56
2022-12-03T15:02:14.118Z,102141.97
2022-12-03T15:04:41.218Z,102148.56
2022-12-03T15:07:08.017Z,102145.78
2022-12-03T15:09:34.651Z,102153.09
2022-12-03T15:12:01.404Z,102148.44
2022-12-03T15:14:28.001Z,102143.03
2022-12-03T15:16:54.663Z,102141.88
2022-12-03T15:19:21.355Z,102133.03
2022-12-03T15:21:47.832Z,102133.50
2022-12-03T15:24:14.333Z,102127.31
2022-12-03T15:26:40.770Z,102130.28
2022-12-03T15:29:07.254Z,102124.06
2022-12-03T15:31:33.890Z,102128.00
2022-12-03T15:34:00.375Z,102119.59
2022-12-03T15:36:26.851Z,102117.75
2022-12-03T15:38:53.354Z,102120.88
2022-12-03T15:41:29.022Z,102119.31
2022-12-03T15:43:57.565Z,102119.31
2022-12-03T15:46:24.317Z,102113.81
2022-12-03T15:48:50.824Z,102114.97
2022-12-03T15:51:17.532Z,102121.22
2022-12-03T15:53:43.963Z,102111.97
2022-12-03T15:56:12.084Z,102108.44
2022-12-03T15:58:39.668Z,102116.38
2022-12-03T16:01:06.598Z,102121.56
2022-12-03T16:03:33.163Z,102111.75
2022-12-03T16:05:59.711Z,102118.97
2022-12-03T16:08:26.939Z,102114.88
2022-12-03T16:10:53.441Z,102117.78
2022-12-03T16:13:19.907Z,102114.97
2022-12-03T16:15:46.380Z,102110.88
2022-12-03T16:18:12.843Z,102115.88
2022-12-03T16:20:39.340Z,102111.75
2022-12-03T16:23:05.819Z,102111.22
2022-12-03T16:25:32.308Z,102111.78
2022-12-03T16:27:58.801Z,102096.81
2022-12-03T16:30:25.300Z,102099.13
2022-12-03T16:32:51.846Z,102111.06
2022-12-03T16:35:18.442Z,102101.09
2022-12-03T16:37:44.923Z,102106.06
2022-12-03T16:40:12.143Z,102102.94
2022-12-03T16:42:38.670Z,102095.09
2022-12-03T16:45:08.422Z,102098.75
2022-12-03T16:47:35.989Z,102097.97
2022-12-03T16:50:03.811Z,102092.69
2022-12-03T16:52:30.292Z,102096.97
2022-12-03T16:54:56.727Z,102097.84
2022-12-03T16:57:23.190Z,102101.31
2022-12-03T16:59:49.618Z,102092.31
2022-12-03T17:02:16.243Z,102095.09
2022-12-03T17:04:42.710Z,102095.53
2022-12-03T17:07:09.176Z,102093.59
2022-12-03T17:09:35.591Z,102095.63
2022-12-03T17:12:02.044Z,102094.09
2022-12-03T17:14:33.032Z,102087.34
2022-12-03T17:16:59.844Z,102090.13
2022-12-03T17:19:26.288Z,102093.56
2022-12-03T17:21:54.093Z,102086.63
2022-12-03T17:24:21.442Z,102082.03
2022-12-03T17:26:48.051Z,102086.84
2022-12-03T17:29:14.542Z,102079.59
2022-12-03T17:31:42.493Z,102074.47
2022-12-03T17:34:09.587Z,102083.25
2022-12-03T17:36:36.077Z,102066.88
2022-12-03T17:39:02.583Z,102078.94
2022-12-03T17:41:29.043Z,102076.22
2022-12-03T17:43:55.485Z,102077.75
2022-12-03T17:46:22.048Z,102084.66
2022-12-03T17:48:48.500Z,102075.59
2022-12-03T17:51:15.034Z,102067.22
2022-12-03T17:53:41.471Z,102075.47
2022-12-03T17:56:08.007Z,102066.66
2022-12-03T17:58:34.762Z,102070.28
2022-12-03T18:01:03.114Z,102066.53
2022-12-03T18:03:30.156Z,102070.41
2022-12-03T18:05:56.754Z,102075.22
2022-12-03T18:08:23.396Z,102069.56
2022-12-03T18:10:50.241Z,102067.06
2022-12-03T18:13:16.779Z,102076.56
2022-12-03T18:15:43.345Z,102075.06
2022-12-03T18:18:09.910Z,102052.72
2022-12-03T18:20:36.515Z,102056.34
2022-12-03T18:23:03.152Z,102068.50
2022-12-03T18:25:29.762Z,102067.22
2022-12-03T18:27:56.925Z,102069.47
2022-12-03T18:30:23.492Z,102061.69
2022-12-03T18:32:50.700Z,102061.19
2022-12-03T18:35:18.036Z,102057.38
2022-12-03T18:37:44.683Z,102068.75
2022-12-03T18:40:20.113Z,102054.03
2022-12-03T18:42:47.047Z,102066.94
2022-12-03T18:45:15.210Z,102062.53
2022-12-03T18:47:42.243Z,102061.03
2022-12-03T18:50:09.583Z,102062.16
2022-12-03T18:52:36.299Z,102055.25
2022-12-03T18:55:03.520Z,102067.88
2022-12-03T18:57:29.972Z,102054.81
2022-12-03T18:59:56.556Z,102053.75
2022-12-03T19:05:10.028Z,102059.81
2022-12-03T19:07:36.963Z,102060.03
2022-12-03T19:10:04.568Z,102062.00
2022-12-03T19:12:31.246Z,102063.81
2022-12-03T19:14:58.773Z,102064.91
2022-12-03T19:17:27.109Z,102062.38
2022-12-03T19:19:54.278Z,102067.53
2022-12-03T19:22:21.313Z,102066.78
2022-12-03T19:24:47.767Z,102063.13
2022-12-03T19:27:14.330Z,102072.78
2022-12-03T19:29:40.832Z,102063.50
2022-12-03T19:32:07.544Z,102062.59
2022-12-03T19:34:37.072Z,102071.88
2022-12-03T19:37:03.590Z,102060.97
2022-12-03T19:39:30.052Z,102065.19
2022-12-03T19:41:56.553Z,102072.50
2022-12-03T19:44:23.105Z,102073.59
2022-12-03T19:46:50.124Z,102073.69
2022-12-03T19:49:18.613Z,102067.16
2022-12-03T19:51:45.143Z,102067.59
2022-12-03T19:54:11.660Z,102066.75
2022-12-03T19:56:38.659Z,102066.63
2022-12-03T19:59:05.479Z,102066.75
2022-12-03T20:01:33.585Z,102067.78
2022-12-03T20:04:01.944Z,102069.13
2022-12-03T20:06:31.403Z,102067.63
2022-12-03T20:09:03.974Z,102068.41
2022-12-03T20:11:32.178Z,102062.53
2022-12-03T20:14:10.513Z,102069.47
2022-12-03T20:16:37.367Z,102066.22
2022-12-03T20:19:06.731Z,102069.69
2022-12-03T20:21:35.513Z,102077.56
2022-12-03T20:24:02.718Z,102072.00
2022-12-03T20:26:29.208Z,102073.38
2022-12-03T20:28:56.877Z,102069.72
2022-12-03T20:31:25.875Z,102075.34
2022-12-03T20:33:54.982Z,102078.84
2022-12-03T20:36:22.786Z,102077.03
2022-12-03T20:38:53.771Z,102070.59
2022-12-03T20:41:20.795Z,102069.69
2022-12-03T20:43:47.916Z,102074.94
2022-12-03T20:46:20.301Z,102069.34
2022-12-03T20:48:47.292Z,102081.94
2022-12-03T20:51:19.097Z,102091.22
2022-12-03T20:53:46.061Z,102091.03
2022-12-03T20:56:22.181Z,102090.47
2022-12-03T20:58:49.728Z,102085.16
2022-12-03T21:01:19.336Z,102091.34
2022-12-03T21:03:46.570Z,102093.41
2022-12-03T21:06:14.118Z,102089.03
2022-12-03T21:08:42.472Z,102079.81
2022-12-03T21:11:14.905Z,102078.22
2022-12-03T21:13:43.511Z,102079.00
2022-12-03T21:16:12.762Z,102082.00
2022-12-03T21:18:39.531Z,102087.41
2022-12-03T21:21:06.137Z,102080.94
2022-12-03T21:23:33.733Z,102094.75
2022-12-03T21:26:12.321Z,102082.69
2022-12-03T21:28:40.849Z,102100.44
2022-12-03T21:31:10.072Z,102094.56
2022-12-03T21:33:37.316Z,102100.06
2022-12-03T21:36:06.618Z,102096.22
2022-12-03T21:38:33.944Z,102095.72
2022-12-03T21:41:01.348Z,102099.69
2022-12-03T21:43:28.211Z,102093.88
2022-12-03T21:45:54.763Z,102093.81
2022-12-03T21:48:21.845Z,102099.22
2022-12-03T21:51:03.608Z,102094.03
2022-12-03T21:53:32.132Z,102103.09
2022-12-03T21:55:59.035Z,102103.31
2022-12-03T21:58:25.619Z,102112.25
2022-12-03T22:00:52.170Z,102114.22
2022-12-03T22:03:18.616Z,102102.44
2022-12-03T22:05:45.118Z,102110.47
2022-12-03T22:08:13.735Z,102103.13
2022-12-03T22:10:40.433Z,102112.03
2022-12-03T22:13:06.900Z,102109.66
2022-12-03T22:15:33.535Z,102104.69
2022-12-03T22:18:00.073Z,102102.34
2022-12-03T22:20:26.875Z,102112.66
2022-12-03T22:22:53.366Z,102105.28
2022-12-03T22:25:19.823Z,102116.03
2022-12-03T22:27:46.259Z,102107.88
2022-12-03T22:30:12.828Z,102115.88
2022-12-03T22:32:39.319Z,102116.09
2022-12-03T22:35:06.219Z,102110.44
2022-12-03T22:37:32.889Z,102105.56
2022-12-03T22:39:59.446Z,102110.72
2022-12-03T22:42:25.904Z,102104.66
2022-12-03T22:44:52.351Z,102112.75
2022-12-03T22:47:18.809Z,102101.81
2022-12-03T22:49:45.257Z,102104.69
2022-12-03T22:52:11.722Z,102104.09
2022-12-03T22:54:38.156Z,102112.53
2022-12-03T22:57:04.656Z,102105.03
2022-12-03T22:59:31.144Z,102101.22
2022-12-03T23:01:58.131Z,102102.72
2022-12-03T23:04:25.128Z,102100.16
2022-12-03T23:06:51.607Z,102102.88
2022-12-03T23:09:18.311Z,102099.00
2022-12-03T23:11:45.460Z,102099.06
2022-12-03T23:14:12.888Z,102105.31
2022-12-03T23:16:39.592Z,102108.38
2022-12-03T23:19:06.427Z,102105.22
2022-12-03T23:21:34.903Z,102102.31
2022-12-03T23:24:03.696Z,102107.38
2022-12-03T23:26:30.516Z,102107.50
2022-12-03T23:28:57.074Z,102102.00
2022-12-03T23:31:26.567Z,102113.47
2022-12-03T23:33:53.620Z,102099.78
2022-12-03T23:36:21.256Z,102104.09
2022-12-03T23:38:47.833Z,102096.84
2022-12-03T23:41:16.327Z,102103.25
2022-12-03T23:43:43.160Z,102103.94
2022-12-03T23:46:17.913Z,102098.34
2022-12-03T23:48:45.576Z,102097.78
2022-12-03T23:51:20.797Z,102093.88
2022-12-03T23:53:47.672Z,102104.31
2022-12-03T23:56:16.971Z,102112.88
2022-12-03T23:58:44.334Z,102107.28
